Terminal Aerodrome Forecast
Issued by NWS

Current Version | Previous Version | Text Only | Print | Product List | Glossary Off
Versions: 1 2 3 4 5 6 7 8 9 10 11 12 13 14 15 16 17

000
FTUS41 KRNK 301133
TAFLWB
TAF
KLWB 301133Z 3012/3112 00000KT 1/4SM FG OVC001
     FM301300 00000KT 3SM BR BKN015
     FM301400 00000KT P6SM BKN120
     FM301900 34005KT P6SM VCTS BKN040CB
     FM302300 00000KT P6SM SCT050 BKN250
     FM310500 00000KT 1/4SM FG OVC001=

USA.gov is the U.S. government's official web portal to all federal, state and local government web resources and services.